Time;durP1;ratioP1;P1;durP2;ratioP2;P2;SDS_P1;SDS_P2;PMS_P1;PMS_P2;Temp;Humidity;BMP_temperature;BMP_pressure;BME280_temperature;BME280_humidity;BME280_pressure;Samples;Min_cycle;Max_cycle;Signal;HPM_P1;HPM_P2
2021/06/24 00:00:08;;;;;;;6.30;4.05;;;;;;;13.39;100.00;102210.97;3539703;40;20059;-64
2021/06/24 00:02:35;;;;;;;8.63;3.90;;;;;;;13.40;100.00;102215.38;3542175;40;20049;-63
2021/06/24 00:05:01;;;;;;;8.18;3.78;;;;;;;13.37;100.00;102211.06;3540578;40;20053;-64
2021/06/24 00:07:28;;;;;;;5.10;3.75;;;;;;;13.38;100.00;102215.47;3539972;40;20047;-64
2021/06/24 00:09:54;;;;;;;9.23;3.95;;;;;;;13.30;100.00;102207.94;3540036;40;20054;-64
2021/06/24 00:12:22;;;;;;;5.63;3.67;;;;;;;13.30;100.00;102197.13;3539371;40;20051;-64
2021/06/24 00:14:49;;;;;;;10.98;4.25;;;;;;;13.31;100.00;102209.69;3540603;40;20053;-64
2021/06/24 00:17:15;;;;;;;9.85;4.47;;;;;;;13.23;100.00;102195.91;3538450;40;20094;-64
2021/06/24 00:19:42;;;;;;;6.82;3.92;;;;;;;13.20;100.00;102196.13;3538318;40;20441;-64
2021/06/24 00:22:08;;;;;;;9.25;4.40;;;;;;;13.29;100.00;102200.84;3539196;40;20400;-64
2021/06/24 00:24:35;;;;;;;7.95;4.20;;;;;;;13.17;100.00;102201.78;3540579;40;20059;-64
2021/06/24 00:27:02;;;;;;;8.93;4.10;;;;;;;13.12;100.00;102193.19;3540381;40;20096;-64
2021/06/24 00:29:29;;;;;;;8.63;4.35;;;;;;;13.02;100.00;102197.59;3539711;40;20053;-65
2021/06/24 00:31:56;;;;;;;6.57;3.95;;;;;;;13.00;100.00;102204.94;3538561;40;20035;-63
2021/06/24 00:34:22;;;;;;;10.90;4.80;;;;;;;13.00;100.00;102191.44;3538671;40;20056;-64
2021/06/24 00:36:49;;;;;;;13.80;4.90;;;;;;;12.94;100.00;102190.94;3538918;40;20057;-64
2021/06/24 00:39:15;;;;;;;10.75;4.55;;;;;;;12.88;100.00;102201.34;3537857;40;20058;-64
2021/06/24 00:41:42;;;;;;;10.10;4.55;;;;;;;12.87;100.00;102203.19;3538889;40;20062;-65
2021/06/24 00:44:09;;;;;;;8.13;4.30;;;;;;;12.99;100.00;102197.84;3538409;40;20055;-64
2021/06/24 00:46:37;;;;;;;5.30;4.28;;;;;;;13.03;100.00;102193.88;3539053;40;20079;-65
2021/06/24 00:49:03;;;;;;;9.57;4.35;;;;;;;12.93;100.00;102186.50;3540009;40;20044;-65
2021/06/24 00:51:31;;;;;;;6.18;4.68;;;;;;;12.89;100.00;102187.72;3539578;40;20050;-64
2021/06/24 00:53:58;;;;;;;6.15;4.50;;;;;;;12.89;100.00;102187.72;3540531;40;20062;-64
2021/06/24 00:56:27;;;;;;;7.15;4.82;;;;;;;12.83;100.00;102187.34;3538618;40;20325;-64
2021/06/24 00:58:54;;;;;;;9.07;4.85;;;;;;;12.79;100.00;102187.59;3539529;40;20057;-65
2021/06/24 01:04:30;;;;;;;8.18;4.68;;;;;;;12.66;100.00;102172.41;3572682;23;20144;-64
2021/06/24 01:06:57;;;;;;;10.50;4.57;;;;;;;12.66;100.00;102175.13;3589917;39;20039;-64
2021/06/24 01:09:23;;;;;;;9.88;5.28;;;;;;;12.58;100.00;102178.41;3590178;39;20326;-65
2021/06/24 01:11:50;;;;;;;7.10;4.38;;;;;;;12.53;100.00;102186.88;3590826;39;20052;-64
2021/06/24 01:14:17;;;;;;;6.70;4.40;;;;;;;12.47;100.00;102189.16;3589696;39;20064;-64
2021/06/24 01:16:43;;;;;;;5.97;4.20;;;;;;;12.35;100.00;102193.66;3588149;39;20050;-64
2021/06/24 01:19:11;;;;;;;10.95;4.80;;;;;;;12.38;100.00;102201.50;3588203;39;20048;-63
2021/06/24 01:21:39;;;;;;;10.38;5.38;;;;;;;12.35;100.00;102207.16;3588518;39;20699;-65
2021/06/24 01:24:07;;;;;;;9.93;4.65;;;;;;;12.48;100.00;102207.94;3590465;39;20040;-64
2021/06/24 01:26:41;;;;;;;7.65;5.00;;;;;;;12.47;100.00;102202.66;3614507;23;20061;-64
2021/06/24 01:29:08;;;;;;;10.63;4.90;;;;;;;12.52;100.00;102204.03;3559042;40;20328;-64
2021/06/24 01:31:35;;;;;;;14.40;5.22;;;;;;;12.63;100.00;102192.41;3560172;40;20045;-64
2021/06/24 01:34:01;;;;;;;11.90;4.85;;;;;;;12.64;100.00;102199.53;3561055;40;20088;-64
2021/06/24 01:36:28;;;;;;;7.95;4.55;;;;;;;12.61;100.00;102203.34;3559307;40;20086;-64
2021/06/24 01:38:55;;;;;;;12.85;5.25;;;;;;;12.56;100.00;102197.44;3561219;40;20034;-63
2021/06/24 01:41:22;;;;;;;8.48;4.28;;;;;;;12.69;100.00;102185.69;3559896;40;25666;-64
2021/06/24 01:43:49;;;;;;;7.82;4.43;;;;;;;12.71;100.00;102183.75;3560179;40;20079;-64
2021/06/24 01:46:15;;;;;;;10.57;5.20;;;;;;;12.72;100.00;102196.25;3559703;40;20304;-63
2021/06/24 01:48:42;;;;;;;8.07;4.43;;;;;;;12.75;100.00;102190.63;3560603;40;20052;-64
2021/06/24 01:51:09;;;;;;;10.45;5.63;;;;;;;12.77;100.00;102181.41;3558507;40;20037;-65
2021/06/24 01:53:35;;;;;;;8.68;4.68;;;;;;;12.80;100.00;102175.78;3561135;40;20036;-64
2021/06/24 01:56:02;;;;;;;5.88;4.55;;;;;;;12.80;100.00;102172.22;3559898;40;20784;-65
2021/06/24 01:58:31;;;;;;;13.13;5.55;;;;;;;12.75;100.00;102158.19;3560842;40;20057;-64
2021/06/24 02:01:00;;;;;;;8.27;4.93;;;;;;;12.80;100.00;102150.63;3560171;40;20063;-65
2021/06/24 02:05:58;;;;;;;12.88;5.03;;;;;;;12.96;100.00;102163.78;3604626;23;20076;-64
2021/06/24 02:08:26;;;;;;;9.55;5.38;;;;;;;12.89;100.00;102176.91;3579063;40;20056;-65
2021/06/24 02:10:54;;;;;;;8.43;4.90;;;;;;;12.83;100.00;102177.38;3578553;40;20061;-65
2021/06/24 02:13:21;;;;;;;7.55;4.68;;;;;;;12.70;100.00;102176.63;3579621;40;20044;-65
2021/06/24 02:15:49;;;;;;;7.65;4.43;;;;;;;12.72;100.00;102174.66;3580308;40;20055;-64
2021/06/24 02:18:16;;;;;;;9.77;4.60;;;;;;;12.79;100.00;102175.91;3578955;40;20060;-63
2021/06/24 02:20:42;;;;;;;6.80;4.50;;;;;;;12.83;100.00;102188.19;3580042;40;20070;-64
2021/06/24 02:23:10;;;;;;;12.00;4.93;;;;;;;12.86;100.00;102170.91;3580063;40;20047;-65
2021/06/24 02:25:36;;;;;;;12.02;4.72;;;;;;;12.82;100.00;102170.25;3580718;40;20045;-64
2021/06/24 02:28:04;;;;;;;7.90;4.38;;;;;;;12.82;100.00;102166.69;3579341;40;20049;-63
2021/06/24 02:30:31;;;;;;;10.57;4.60;;;;;;;12.84;100.00;102179.13;3579727;40;20055;-64
2021/06/24 02:32:59;;;;;;;8.75;4.38;;;;;;;12.79;100.00;102182.19;3580437;40;20037;-65
2021/06/24 02:35:26;;;;;;;9.15;4.55;;;;;;;12.89;100.00;102179.63;3580059;40;20060;-64
2021/06/24 02:37:54;;;;;;;7.70;4.30;;;;;;;12.90;100.00;102184.03;3579341;40;20060;-64
2021/06/24 02:40:21;;;;;;;8.23;4.43;;;;;;;12.90;100.00;102175.09;3579383;40;20099;-65
2021/06/24 02:42:48;;;;;;;6.28;4.75;;;;;;;12.87;100.00;102178.88;3579548;40;20053;-64
2021/06/24 02:45:15;;;;;;;11.52;5.00;;;;;;;12.95;100.00;102180.97;3579139;40;20063;-65
2021/06/24 02:47:42;;;;;;;9.60;4.75;;;;;;;12.91;100.00;102180.38;3579501;40;20074;-64
2021/06/24 02:50:12;;;;;;;7.97;5.03;;;;;;;12.87;100.00;102176.19;3578944;40;20040;-64
2021/06/24 02:52:38;;;;;;;6.38;4.85;;;;;;;12.86;100.00;102170.91;3580167;40;20310;-65
2021/06/24 02:55:06;;;;;;;9.82;4.95;;;;;;;12.88;100.00;102164.41;3579060;40;20073;-64
2021/06/24 02:57:33;;;;;;;6.28;5.10;;;;;;;12.97;100.00;102158.28;3580192;40;20056;-64
2021/06/24 03:00:00;;;;;;;9.73;4.80;;;;;;;12.89;100.00;102160.69;3578272;40;20044;-65
2021/06/24 03:02:26;;;;;;;8.60;4.60;;;;;;;12.91;100.00;102166.84;3579576;40;20083;-65
2021/06/24 03:04:53;;;;;;;4.57;4.07;;;;;;;12.93;100.00;102166.75;3580196;40;20051;-64
2021/06/24 03:07:20;;;;;;;4.78;4.22;;;;;;;12.96;100.00;102166.50;3579751;40;20041;-64
2021/06/24 03:09:47;;;;;;;9.65;4.78;;;;;;;12.92;100.00;102168.56;3578688;40;20061;-65
2021/06/24 03:12:13;;;;;;;5.95;4.32;;;;;;;12.95;100.00;102165.63;3579152;40;20096;-65
2021/06/24 03:14:40;;;;;;;7.78;4.50;;;;;;;12.94;100.00;102158.50;3580065;40;20043;-63
2021/06/24 03:17:06;;;;;;;8.75;5.20;;;;;;;12.79;100.00;102163.28;3577992;40;20382;-65
2021/06/24 03:19:33;;;;;;;8.68;5.18;;;;;;;12.79;100.00;102159.69;3579094;40;20044;-64
2021/06/24 03:21:59;;;;;;;11.38;4.88;;;;;;;12.87;100.00;102154.56;3581311;40;20451;-65
2021/06/24 03:24:27;;;;;;;8.23;4.75;;;;;;;12.80;100.00;102156.88;3580034;40;20108;-64
2021/06/24 03:26:53;;;;;;;8.23;4.60;;;;;;;12.88;100.00;102159.00;3580355;40;20045;-65
2021/06/24 03:29:20;;;;;;;7.30;4.72;;;;;;;12.77;100.00;102161.66;3578915;40;20727;-65
2021/06/24 03:31:47;;;;;;;7.15;4.80;;;;;;;12.94;100.00;102158.50;3581585;40;20147;-65
2021/06/24 03:34:13;;;;;;;6.55;4.95;;;;;;;12.84;100.00;102159.31;3580775;40;20055;-64
2021/06/24 03:36:39;;;;;;;10.02;4.40;;;;;;;12.82;100.00;102150.50;3580693;40;20082;-62
2021/06/24 03:39:06;;;;;;;8.70;4.65;;;;;;;12.86;100.00;102149.28;3580077;40;20064;-63
2021/06/24 03:41:35;;;;;;;7.18;4.97;;;;;;;12.88;100.00;102142.78;3581129;40;20047;-63
2021/06/24 03:46:52;;;;;;;7.45;4.78;;;;;;;12.89;100.00;102132.81;3614395;22;20073;-63
2021/06/24 03:49:18;;;;;;;9.07;5.45;;;;;;;12.85;100.00;102136.75;3580794;40;20067;-63
2021/06/24 03:51:45;;;;;;;7.40;4.70;;;;;;;12.87;100.00;102135.66;3581269;40;20359;-63
2021/06/24 03:54:12;;;;;;;9.02;5.00;;;;;;;12.93;100.00;102137.00;3580682;40;20607;-63
2021/06/24 03:56:40;;;;;;;10.45;5.43;;;;;;;12.93;100.00;102134.31;3581183;40;20055;-63
2021/06/24 03:59:06;;;;;;;6.82;4.80;;;;;;;12.97;100.00;102139.34;3580797;40;20050;-63
2021/06/24 04:01:33;;;;;;;6.82;5.05;;;;;;;12.97;100.00;102136.66;3580925;40;20074;-63
2021/06/24 04:03:59;;;;;;;6.82;4.88;;;;;;;12.96;100.00;102124.09;3580557;40;20068;-63
2021/06/24 04:06:27;;;;;;;8.20;5.55;;;;;;;12.93;100.00;102129.75;3580965;40;20060;-63
2021/06/24 04:08:53;;;;;;;7.32;5.57;;;;;;;13.00;100.00;102126.56;3581710;40;20064;-63
2021/06/24 04:11:20;;;;;;;8.07;5.10;;;;;;;13.01;100.00;102133.69;3581088;40;20047;-64
2021/06/24 04:13:47;;;;;;;7.60;5.85;;;;;;;13.05;100.00;102127.94;3581967;40;20068;-63
2021/06/24 04:16:14;;;;;;;8.15;5.45;;;;;;;13.04;100.00;102136.16;3579468;40;20063;-63
2021/06/24 04:18:40;;;;;;;9.50;6.00;;;;;;;13.08;100.00;102126.84;3581275;40;20055;-63
2021/06/24 04:21:07;;;;;;;7.25;5.07;;;;;;;13.24;100.00;102132.75;3579793;40;20041;-63
2021/06/24 04:23:33;;;;;;;8.82;5.32;;;;;;;13.29;100.00;102138.66;3582229;40;20048;-63
2021/06/24 04:26:00;;;;;;;7.32;5.22;;;;;;;13.27;100.00;102137.91;3581099;40;20085;-63
2021/06/24 04:28:26;;;;;;;11.30;5.43;;;;;;;13.27;100.00;102132.50;3581374;40;20612;-62
2021/06/24 04:30:54;;;;;;;9.88;5.10;;;;;;;13.23;100.00;102139.13;3581092;40;20102;-63
2021/06/24 04:33:21;;;;;;;9.45;5.20;;;;;;;13.25;100.00;102133.59;3579404;40;20084;-64
2021/06/24 04:35:47;;;;;;;7.82;5.28;;;;;;;13.23;100.00;102131.00;3581064;40;20049;-63
2021/06/24 04:38:14;;;;;;;5.95;5.35;;;;;;;13.15;100.00;102126.22;3579821;40;20040;-63
2021/06/24 04:43:07;;;;;;;8.82;5.03;;;;;;;13.17;100.00;102120.69;3642198;22;20380;-63
2021/06/24 04:45:34;;;;;;;10.65;5.45;;;;;;;13.34;100.00;102130.19;3571535;40;20039;-63
2021/06/24 04:48:02;;;;;;;8.45;5.78;;;;;;;13.34;100.00;102116.69;3571012;40;20041;-64
2021/06/24 04:50:28;;;;;;;10.23;5.60;;;;;;;13.40;100.00;102118.03;3569403;40;20060;-63
2021/06/24 04:52:55;;;;;;;10.18;5.50;;;;;;;13.55;100.00;102114.06;3571448;40;20081;-63
2021/06/24 04:55:23;;;;;;;9.48;5.80;;;;;;;13.49;100.00;102111.88;3570476;40;20072;-64
2021/06/24 04:57:49;;;;;;;7.65;5.75;;;;;;;13.53;100.00;102115.16;3570263;40;20146;-64
2021/06/24 05:00:16;;;;;;;10.40;6.40;;;;;;;13.69;100.00;102115.63;3569902;40;20067;-62
2021/06/24 05:02:43;;;;;;;9.50;5.47;;;;;;;13.72;100.00;102117.25;3571013;40;20380;-64
2021/06/24 05:05:11;;;;;;;11.77;5.40;;;;;;;13.65;100.00;102109.63;3569438;40;20056;-64
2021/06/24 05:07:39;;;;;;;7.32;5.05;;;;;;;13.78;100.00;102100.50;3569265;40;20083;-64
2021/06/24 05:10:07;;;;;;;8.32;4.95;;;;;;;13.69;100.00;102101.25;3569406;40;20049;-64
2021/06/24 05:12:34;;;;;;;8.60;5.23;;;;;;;13.75;100.00;102101.63;3571231;40;20078;-64
2021/06/24 05:15:01;;;;;;;10.50;5.63;;;;;;;13.76;100.00;102094.38;3569724;40;20424;-65
2021/06/24 05:17:28;;;;;;;6.53;5.03;;;;;;;13.84;100.00;102091.88;3568721;40;20081;-63
2021/06/24 05:19:55;;;;;;;8.25;4.72;;;;;;;13.96;100.00;102090.84;3570125;40;20038;-64
2021/06/24 05:22:23;;;;;;;11.95;5.55;;;;;;;13.92;100.00;102100.22;3568287;40;20073;-63
2021/06/24 05:24:49;;;;;;;11.38;5.20;;;;;;;14.00;100.00;102096.84;3570750;40;20075;-63
2021/06/24 05:27:16;;;;;;;12.30;4.93;;;;;;;14.25;100.00;102095.69;3569423;40;20344;-63
2021/06/24 05:29:42;;;;;;;8.18;4.85;;;;;;;14.33;100.00;102095.88;3570458;40;20055;-64
2021/06/24 05:32:09;;;;;;;6.45;4.32;;;;;;;14.52;100.00;102097.03;3569710;40;20055;-64
2021/06/24 05:34:35;;;;;;;5.13;4.53;;;;;;;14.50;100.00;102098.97;3570967;40;20057;-63
2021/06/24 05:37:03;;;;;;;6.40;4.35;;;;;;;14.65;100.00;102107.66;3570397;40;20307;-64
2021/06/24 05:39:31;;;;;;;9.60;4.53;;;;;;;14.77;100.00;102100.34;3569624;40;20053;-64
2021/06/24 05:41:58;;;;;;;5.18;4.32;;;;;;;14.64;100.00;102101.41;3570504;40;20052;-64
2021/06/24 05:44:25;;;;;;;8.73;4.15;;;;;;;14.62;100.00;102091.69;3569949;40;20025;-63
2021/06/24 05:46:51;;;;;;;7.63;4.82;;;;;;;14.46;100.00;102097.56;3570779;40;20051;-63
2021/06/24 05:49:18;;;;;;;5.28;4.63;;;;;;;14.64;100.00;102100.56;3568676;40;20057;-65
2021/06/24 05:51:44;;;;;;;6.18;4.40;;;;;;;14.61;100.00;102100.78;3568556;40;20096;-64
2021/06/24 05:54:11;;;;;;;8.25;4.75;;;;;;;14.61;100.00;102104.38;3568332;40;20045;-64
2021/06/24 05:56:39;;;;;;;7.15;4.25;;;;;;;14.70;100.00;102109.00;3570560;40;20044;-63
2021/06/24 05:59:05;;;;;;;5.60;4.07;;;;;;;14.91;100.00;102097.28;3569660;40;20041;-64
2021/06/24 06:01:31;;;;;;;11.88;5.25;;;;;;;14.93;100.00;102098.03;3569532;40;20040;-64
2021/06/24 06:03:58;;;;;;;7.57;4.50;;;;;;;14.94;100.00;102097.00;3570278;40;20041;-63
2021/06/24 06:06:24;;;;;;;7.85;5.03;;;;;;;15.05;100.00;102093.38;3569144;40;20061;-64
2021/06/24 06:08:51;;;;;;;12.98;5.07;;;;;;;15.00;100.00;102091.06;3569387;40;20056;-63
2021/06/24 06:11:18;;;;;;;10.68;4.82;;;;;;;15.10;100.00;102095.69;3569046;40;20411;-63
2021/06/24 06:13:46;;;;;;;7.32;4.72;;;;;;;15.11;100.00;102091.97;3569802;40;20384;-64
2021/06/24 06:16:12;;;;;;;7.05;5.05;;;;;;;15.34;100.00;102092.63;3569571;40;20038;-63
2021/06/24 06:18:39;;;;;;;10.98;5.10;;;;;;;15.25;100.00;102091.59;3568936;40;21509;-63
2021/06/24 06:21:06;;;;;;;6.97;5.00;;;;;;;15.62;100.00;102096.44;3568926;40;20063;-64
2021/06/24 06:23:32;;;;;;;7.68;5.15;;;;;;;15.76;100.00;102087.88;3570654;40;20041;-62
2021/06/24 06:25:59;;;;;;;6.68;5.45;;;;;;;16.01;100.00;102082.09;3570867;40;20046;-64
2021/06/24 06:28:26;;;;;;;10.23;5.75;;;;;;;16.11;100.00;102085.69;3569523;40;20415;-63
2021/06/24 06:30:58;;;;;;;7.68;5.13;;;;;;;16.31;100.00;102083.81;3566838;40;20055;-63
2021/06/24 06:33:24;;;;;;;8.18;5.05;;;;;;;16.23;100.00;102073.66;3569855;40;20045;-63
2021/06/24 06:38:46;;;;;;;8.90;5.65;;;;;;;15.99;100.00;102074.09;3613863;23;20055;-64
2021/06/24 06:41:13;;;;;;;7.45;4.88;;;;;;;16.04;100.00;102079.94;3577968;40;20324;-62
2021/06/24 06:43:39;;;;;;;10.25;4.93;;;;;;;16.46;100.00;102079.66;3580298;40;20089;-63
2021/06/24 06:46:07;;;;;;;5.90;4.45;;;;;;;16.60;100.00;102075.63;3580075;40;20052;-63
2021/06/24 06:48:35;;;;;;;8.27;4.30;;;;;;;16.54;100.00;102073.47;3579933;40;20376;-63
2021/06/24 06:51:01;;;;;;;7.38;5.05;;;;;;;16.30;100.00;102079.38;3580591;40;20080;-64
2021/06/24 06:56:06;;;;;;;6.75;3.97;;;;;;;17.09;100.00;102074.66;3590805;23;20426;-63
2021/06/24 06:58:33;;;;;;;7.97;4.38;;;;;;;17.01;100.00;102071.84;3561856;40;20058;-63
2021/06/24 07:00:59;;;;;;;9.10;4.05;;;;;;;16.95;100.00;102070.56;3560938;40;20619;-64
2021/06/24 07:03:27;;;;;;;7.75;3.85;;;;;;;16.52;100.00;102077.34;3559557;40;20061;-64
2021/06/24 07:05:53;;;;;;;8.18;3.85;;;;;;;16.43;100.00;102073.63;3560647;40;20105;-64
2021/06/24 07:08:20;;;;;;;6.65;3.83;;;;;;;16.63;100.00;102074.47;3560643;40;20050;-64
2021/06/24 07:10:46;;;;;;;8.45;3.78;;;;;;;17.18;100.00;102071.03;3561934;40;20048;-62
2021/06/24 07:13:13;;;;;;;6.88;4.07;;;;;;;17.17;100.00;102086.50;3561315;40;20054;-63
2021/06/24 07:15:40;;;;;;;9.60;4.28;;;;;;;16.87;100.00;102089.44;3561462;40;20088;-63
2021/06/24 07:18:07;;;;;;;8.35;3.70;;;;;;;16.78;100.00;102085.72;3561421;40;20057;-63
2021/06/24 07:20:35;;;;;;;6.40;3.50;;;;;;;16.70;100.00;102081.03;3558932;40;20187;-64
2021/06/24 07:23:01;;;;;;;7.35;4.20;;;;;;;16.77;100.00;102082.16;3561562;40;20065;-64
2021/06/24 07:25:28;;;;;;;8.38;4.38;;;;;;;16.76;100.00;102094.03;3560341;40;20074;-64
2021/06/24 07:27:54;;;;;;;7.85;3.78;;;;;;;16.67;100.00;102085.94;3560960;40;20089;-63
2021/06/24 07:30:21;;;;;;;7.60;4.50;;;;;;;16.45;100.00;102091.50;3561198;40;20363;-62
2021/06/24 07:32:48;;;;;;;6.93;3.65;;;;;;;16.82;100.00;102085.28;3561125;40;20062;-63
2021/06/24 07:35:15;;;;;;;5.32;4.05;;;;;;;16.45;100.00;102077.94;3561091;40;20052;-63
2021/06/24 07:37:44;;;;;;;6.85;4.00;;;;;;;16.55;100.00;102085.19;3561306;40;20427;-64
2021/06/24 07:40:12;;;;;;;6.70;4.25;;;;;;;16.57;100.00;102083.22;3559151;40;20139;-63
2021/06/24 07:42:38;;;;;;;6.07;3.85;;;;;;;16.91;100.00;102088.16;3560663;40;20054;-62
2021/06/24 07:45:06;;;;;;;7.68;4.35;;;;;;;17.03;100.00;102073.38;3559173;40;20068;-63
2021/06/24 07:47:32;;;;;;;6.88;3.53;;;;;;;16.94;100.00;102077.00;3560189;40;20510;-62
2021/06/24 07:49:59;;;;;;;5.78;4.70;;;;;;;17.17;100.00;102078.34;3561200;40;20433;-63
2021/06/24 07:52:25;;;;;;;8.15;4.85;;;;;;;17.44;100.00;102079.34;3560588;40;20054;-64
2021/06/24 07:54:53;;;;;;;8.43;4.30;;;;;;;17.58;100.00;102074.41;3561124;40;20045;-63
2021/06/24 07:57:20;;;;;;;8.07;3.70;;;;;;;17.96;100.00;102080.63;3559332;40;20061;-64
2021/06/24 07:59:47;;;;;;;5.47;3.60;;;;;;;18.38;100.00;102083.56;3560448;40;20040;-64
2021/06/24 08:02:13;;;;;;;5.63;3.60;;;;;;;18.19;100.00;102087.31;3561478;40;20053;-63
2021/06/24 08:04:40;;;;;;;6.40;3.72;;;;;;;18.38;100.00;102088.16;3561212;40;20064;-63
2021/06/24 08:07:07;;;;;;;8.48;3.83;;;;;;;18.30;100.00;102085.38;3560499;40;20049;-63
2021/06/24 08:09:34;;;;;;;9.60;4.10;;;;;;;17.97;100.00;102080.47;3561205;40;20053;-62
2021/06/24 08:12:01;;;;;;;5.72;3.60;;;;;;;18.31;100.00;102089.81;3561750;40;20042;-64
2021/06/24 08:14:28;;;;;;;8.05;3.88;;;;;;;18.24;100.00;102075.97;3560958;40;20037;-64
2021/06/24 08:16:54;;;;;;;7.28;3.88;;;;;;;18.11;100.00;102083.66;3560883;40;20324;-64
2021/06/24 08:19:21;;;;;;;5.45;3.58;;;;;;;17.76;100.00;102086.19;3560345;40;20050;-64
2021/06/24 08:21:47;;;;;;;4.68;3.70;;;;;;;17.85;100.00;102081.69;3560936;40;20060;-63
2021/06/24 08:24:14;;;;;;;6.88;4.15;;;;;;;17.91;100.00;102072.91;3560387;40;20066;-64
2021/06/24 08:26:41;;;;;;;11.45;4.50;;;;;;;18.09;100.00;102078.38;3561664;40;20033;-64
2021/06/24 08:29:09;;;;;;;8.88;3.97;;;;;;;18.07;100.00;102074.94;3559661;40;20054;-64
2021/06/24 08:31:36;;;;;;;9.25;4.70;;;;;;;18.12;100.00;102067.16;3561420;40;20077;-64
2021/06/24 08:34:02;;;;;;;6.18;3.75;;;;;;;18.12;100.00;102069.88;3558522;40;20570;-63
2021/06/24 08:36:29;;;;;;;5.88;4.15;;;;;;;17.97;100.00;102071.44;3560385;40;20048;-63
2021/06/24 08:38:55;;;;;;;6.63;3.88;;;;;;;18.13;100.00;102078.94;3561845;40;20057;-64
2021/06/24 08:41:25;;;;;;;8.82;3.55;;;;;;;18.20;100.00;102066.41;3560131;40;20078;-63
2021/06/24 08:43:52;;;;;;;5.45;3.60;;;;;;;18.20;100.00;102067.25;3561707;40;20049;-63
2021/06/24 08:46:21;;;;;;;8.65;4.10;;;;;;;18.18;100.00;102077.44;3558489;40;20038;-63
2021/06/24 08:48:47;;;;;;;;;;;;;;;18.51;100.00;102058.63;3561745;40;20094;-62
2021/06/24 08:51:14;;;;;;;7.45;4.03;;;;;;;18.78;100.00;102067.66;3559233;40;19941;-64
2021/06/24 08:53:41;;;;;;;6.28;4.15;;;;;;;18.88;100.00;102071.16;3559653;40;20078;-63
2021/06/24 08:56:08;;;;;;;5.30;3.80;;;;;;;18.68;100.00;102066.91;3560378;40;20060;-64
2021/06/24 09:01:04;;;;;;;7.15;3.50;;;;;;;18.96;100.00;102074.97;3561220;23;20048;-64
2021/06/24 09:03:32;;;;;;;9.38;4.10;;;;;;;18.86;100.00;102081.41;3581079;40;20057;-63
2021/06/24 09:06:00;;;;;;;6.85;3.85;;;;;;;18.98;100.00;102079.25;3579411;40;20085;-63
2021/06/24 09:08:36;;;;;;;5.93;4.10;;;;;;;18.66;100.00;102080.72;3580167;40;20056;-63
2021/06/24 09:11:15;;;;;;;7.97;5.18;;;;;;;18.33;100.00;102079.59;3580737;40;20044;-64
2021/06/24 09:13:42;;;;;;;10.55;3.92;;;;;;;18.37;100.00;102087.31;3581377;40;20061;-63
2021/06/24 09:16:20;;;;;;;7.68;4.07;;;;;;;18.77;100.00;102085.06;3580547;40;20091;-63
2021/06/24 09:18:48;;;;;;;9.02;4.22;;;;;;;18.85;100.00;102082.38;3580747;40;20143;-63
2021/06/24 09:21:20;;;;;;;8.00;4.78;;;;;;;18.77;100.00;102085.06;3582356;40;20042;-63
2021/06/24 09:23:48;;;;;;;7.22;4.18;;;;;;;18.70;100.00;102082.09;3580753;40;20045;-64
2021/06/24 09:26:15;;;;;;;7.70;4.80;;;;;;;19.02;100.00;102085.22;3581111;40;20414;-63
2021/06/24 09:28:43;;;;;;;10.00;3.83;;;;;;;18.93;100.00;102080.75;3581418;40;20314;-63
2021/06/24 09:31:24;;;;;;;10.67;4.53;;;;;;;19.13;100.00;102075.91;3579094;40;20060;-64
2021/06/24 09:33:52;;;;;;;9.23;4.13;;;;;;;18.79;100.00;102069.38;3578172;40;20294;-63
2021/06/24 09:36:35;;;;;;;7.50;4.30;;;;;;;19.06;100.00;102078.44;3577993;40;20082;-63
2021/06/24 09:39:04;;;;;;;7.07;4.50;;;;;;;18.66;100.00;102077.13;3578038;40;20063;-64
2021/06/24 09:41:30;;;;;;;6.20;4.10;;;;;;;18.93;100.00;102070.69;3579475;40;20040;-64
2021/06/24 09:43:57;;;;;;;5.88;4.05;;;;;;;19.03;100.00;102073.31;3578222;40;20044;-63
2021/06/24 09:46:26;;;;;;;5.85;4.38;;;;;;;19.04;100.00;102078.59;3579969;40;20029;-63
2021/06/24 09:48:58;;;;;;;6.22;4.07;;;;;;;19.64;100.00;102079.53;3579924;40;20055;-64
2021/06/24 09:51:26;;;;;;;8.05;4.75;;;;;;;19.25;100.00;102070.00;3579209;40;20134;-63
2021/06/24 09:53:58;;;;;;;7.05;4.30;;;;;;;19.56;100.00;102077.59;3580719;40;20082;-63
2021/06/24 09:56:31;;;;;;;8.52;5.05;;;;;;;19.65;100.00;102074.91;3579944;40;20048;-64
2021/06/24 09:59:00;;;;;;;6.40;4.75;;;;;;;19.05;100.00;102073.97;3580620;40;20080;-64
2021/06/24 10:04:41;;;;;;;7.38;5.07;;;;;;;19.01;100.00;102072.63;3557006;40;20074;-65
2021/06/24 10:07:10;;;;;;;5.85;4.78;;;;;;;19.31;100.00;102073.09;3559839;40;20096;-64
2021/06/24 10:09:39;;;;;;;;;;;;;;;19.64;100.00;102078.66;3560038;40;20068;-64
2021/06/24 10:12:06;;;;;;;6.55;5.35;;;;;;;19.21;100.00;102065.91;3560519;40;20019;-63
2021/06/24 10:14:33;;;;;;;7.88;4.53;;;;;;;19.41;100.00;102068.34;3560572;40;20056;-63
2021/06/24 10:17:02;;;;;;;9.02;5.28;;;;;;;19.18;100.00;102071.66;3560192;40;20057;-64
2021/06/24 10:19:29;;;;;;;;;;;;;;;19.81;100.00;102076.88;3560639;40;20147;-64
2021/06/24 10:22:00;;;;;;;7.60;4.03;;;;;;;19.52;100.00;102076.25;3560029;40;19932;-64
2021/06/24 10:24:31;;;;;;;13.02;5.30;;;;;;;19.42;100.00;102068.19;3559266;40;20342;-64
2021/06/24 10:27:01;;;;;;;6.65;4.55;;;;;;;19.81;100.00;102063.22;3560388;40;20387;-63
2021/06/24 10:29:39;;;;;;;9.43;4.78;;;;;;;20.04;100.00;102069.72;3559126;40;20062;-64
2021/06/24 10:32:22;;;;;;;8.18;4.50;;;;;;;19.77;100.00;102070.84;3561280;40;20045;-63
2021/06/24 10:34:52;;;;;;;6.28;4.72;;;;;;;19.96;100.00;102061.50;3562008;40;20057;-63
2021/06/24 10:37:24;;;;;;;7.13;4.65;;;;;;;20.07;100.00;102065.81;3561135;40;20293;-63
2021/06/24 10:39:52;;;;;;;7.57;4.70;;;;;;;20.25;100.00;102061.03;3561364;40;20082;-64
2021/06/24 10:42:21;;;;;;;9.52;5.10;;;;;;;20.24;100.00;102061.19;3558118;40;20049;-64
2021/06/24 10:45:06;;;;;;;6.88;4.30;;;;;;;20.33;100.00;102062.06;3560078;40;20321;-63
2021/06/24 10:47:40;;;;;;;5.43;4.10;;;;;;;20.87;100.00;102064.25;3560620;40;20077;-64
2021/06/24 10:50:44;;;;;;;7.07;4.20;;;;;;;20.75;100.00;102050.06;3560180;40;21104;-64
2021/06/24 10:53:54;;;;;;;7.38;4.47;;;;;;;20.79;100.00;102056.91;3561961;40;20052;-64
2021/06/24 10:56:45;;;;;;;8.45;4.30;;;;;;;20.30;100.00;102057.78;3561481;40;20089;-64
2021/06/24 10:59:33;;;;;;;10.45;4.38;;;;;;;19.87;100.00;102052.44;3561539;40;20053;-64
2021/06/24 11:02:06;;;;;;;5.95;4.10;;;;;;;20.42;100.00;102040.00;3561504;40;20344;-64
2021/06/24 11:04:37;;;;;;;9.30;4.65;;;;;;;20.14;100.00;102042.25;3561652;40;20378;-64
2021/06/24 11:07:17;;;;;;;5.40;4.28;;;;;;;20.61;100.00;102043.38;3560969;40;20202;-62
2021/06/24 11:10:30;;;;;;;8.98;4.60;;;;;;;19.89;100.00;102039.50;3561381;40;20061;-64
2021/06/24 11:13:01;;;;;;;6.93;3.88;;;;;;;20.57;100.00;102036.56;3562420;40;20127;-63
2021/06/24 11:15:44;;;;;;;7.20;4.22;;;;;;;20.86;100.00;102041.47;3561790;40;20081;-63
2021/06/24 11:18:10;;;;;;;5.97;4.13;;;;;;;20.56;100.00;102040.31;3561277;40;20030;-63
2021/06/24 11:20:43;;;;;;;9.00;4.50;;;;;;;20.68;100.00;102041.69;3560793;40;20060;-64
2021/06/24 11:23:28;;;;;;;8.05;4.40;;;;;;;20.95;100.00;102039.56;3559834;40;20073;-65
2021/06/24 11:26:14;;;;;;;7.30;3.33;;;;;;;21.51;100.00;102045.88;3560209;40;20385;-65
2021/06/24 11:28:45;;;;;;;6.60;4.70;;;;;;;21.23;100.00;102040.00;3558767;40;20034;-63
2021/06/24 11:31:13;;;;;;;6.28;3.78;;;;;;;21.17;100.00;102030.59;3559968;40;20074;-64
2021/06/24 11:33:44;;;;;;;7.55;3.75;;;;;;;21.25;100.00;102035.19;3632898;22;20053;-65
2021/06/24 11:36:13;;;;;;;5.68;3.88;;;;;;;20.79;100.00;102035.03;3568508;40;20515;-65
2021/06/24 11:38:43;;;;;;;;;;;;;;;21.23;100.00;102031.78;3570627;40;20048;-64
2021/06/24 11:41:10;;;;;;;6.72;4.30;;;;;;;21.08;100.00;102030.81;3568319;40;19945;-64
2021/06/24 11:43:37;;;;;;;6.22;4.07;;;;;;;21.49;100.00;102038.81;3568667;40;20065;-63